Time;durP1;ratioP1;P1;durP2;ratioP2;P2;SDS_P1;SDS_P2;PMS_P1;PMS_P2;Temp;Humidity;BMP_temperature;BMP_pressure;BME280_temperature;BME280_humidity;BME280_pressure;Samples;Min_cycle;Max_cycle;Signal;HPM_P1;HPM_P2
2023/04/09 00:01:23;;;;;;;16.02;11.75;;;10.70;99.90;;;;;;4994033;28;20054;-85
2023/04/09 00:03:49;;;;;;;15.38;11.65;;;10.70;99.90;;;;;;4995526;28;20036;-86
2023/04/09 00:06:15;;;;;;;18.17;12.32;;;10.70;99.90;;;;;;4999784;28;20088;-85
2023/04/09 00:08:41;;;;;;;15.93;12.25;;;10.70;99.90;;;;;;4995083;28;20109;-84
2023/04/09 00:11:08;;;;;;;17.65;13.13;;;10.70;99.90;;;;;;4996139;28;20056;-86
2023/04/09 00:13:34;;;;;;;17.30;11.38;;;10.60;99.90;;;;;;4999125;28;20026;-85
2023/04/09 00:16:00;;;;;;;17.17;11.48;;;10.60;99.90;;;;;;4998616;28;20034;-86
2023/04/09 00:18:26;;;;;;;17.55;11.77;;;10.60;99.90;;;;;;4993438;28;20057;-85
2023/04/09 00:20:54;;;;;;;14.93;10.48;;;10.60;99.90;;;;;;4994140;28;20454;-85
2023/04/09 00:23:22;;;;;;;15.63;10.98;;;10.70;99.90;;;;;;4993892;28;20037;-85
2023/04/09 00:25:50;;;;;;;15.35;10.65;;;10.70;99.90;;;;;;4996646;28;20026;-86
2023/04/09 00:28:18;;;;;;;17.98;12.68;;;10.60;99.90;;;;;;4993002;28;20521;-86
2023/04/09 00:30:44;;;;;;;17.08;11.98;;;10.60;99.90;;;;;;4993119;28;20041;-86
2023/04/09 00:33:10;;;;;;;16.05;11.75;;;10.60;99.90;;;;;;4993544;28;21882;-86
2023/04/09 00:35:38;;;;;;;15.95;11.20;;;10.60;99.90;;;;;;5011760;28;20137;-86
2023/04/09 00:38:04;;;;;;;16.23;11.25;;;10.70;99.90;;;;;;4995398;28;20041;-86
2023/04/09 00:40:31;;;;;;;17.15;11.50;;;10.60;99.90;;;;;;4993851;28;20290;-86
2023/04/09 00:42:57;;;;;;;17.73;12.65;;;10.60;99.90;;;;;;5000217;28;20113;-85
2023/04/09 00:45:23;;;;;;;16.77;11.32;;;10.60;99.90;;;;;;4992504;28;20113;-85
2023/04/09 00:47:50;;;;;;;16.95;11.68;;;10.60;99.90;;;;;;4996269;28;20115;-85
2023/04/09 00:50:16;;;;;;;18.50;11.88;;;10.60;99.90;;;;;;4993122;28;20093;-86
2023/04/09 00:52:42;;;;;;;18.17;12.13;;;10.60;99.90;;;;;;4995865;28;20481;-86
2023/04/09 00:55:09;;;;;;;16.42;11.60;;;10.60;99.90;;;;;;4996639;28;20168;-86
2023/04/09 00:57:36;;;;;;;15.25;11.00;;;10.60;99.90;;;;;;4996965;28;20033;-86
2023/04/09 01:00:03;;;;;;;16.83;10.85;;;10.60;99.90;;;;;;4995223;28;20018;-85
2023/04/09 01:02:31;;;;;;;16.77;11.98;;;10.50;99.90;;;;;;4995433;28;20947;-88
2023/04/09 01:04:59;;;;;;;17.63;11.65;;;10.50;99.90;;;;;;4996212;28;20026;-85
2023/04/09 01:07:55;;;;;;;17.30;12.15;;;10.60;99.90;;;;;;4993570;28;20041;-86
2023/04/09 01:10:52;;;;;;;17.42;12.18;;;10.60;99.90;;;;;;5014787;28;20033;-86
2023/04/09 01:13:39;;;;;;;15.70;11.05;;;10.50;99.90;;;;;;4999021;28;20029;-86
2023/04/09 01:16:09;;;;;;;16.17;11.55;;;10.50;99.90;;;;;;4998274;28;20057;-87
2023/04/09 01:18:58;;;;;;;16.77;11.20;;;10.50;99.90;;;;;;4998024;28;20350;-86
2023/04/09 01:21:32;;;;;;;15.85;11.63;;;10.50;99.90;;;;;;4997945;28;20033;-86
2023/04/09 01:24:09;;;;;;;16.85;11.82;;;10.50;99.90;;;;;;5000154;28;20710;-87
2023/04/09 01:27:02;;;;;;;16.13;12.10;;;10.60;99.90;;;;;;5016216;28;20144;-87
2023/04/09 01:29:32;;;;;;;16.38;11.65;;;10.50;99.90;;;;;;4999106;28;20025;-84
2023/04/09 01:32:01;;;;;;;16.77;11.68;;;10.40;99.90;;;;;;5001340;28;20030;-88
2023/04/09 01:34:28;;;;;;;16.20;11.73;;;10.40;99.90;;;;;;4998958;28;20470;-85
2023/04/09 01:37:01;;;;;;;16.60;11.75;;;10.50;99.90;;;;;;5013615;28;20062;-86
2023/04/09 01:39:28;;;;;;;16.55;12.82;;;10.40;99.90;;;;;;4997158;28;20043;-86
2023/04/09 01:41:56;;;;;;;19.50;12.60;;;10.40;99.90;;;;;;4999443;28;20045;-87
2023/04/09 01:44:25;;;;;;;18.40;12.68;;;10.40;99.90;;;;;;5000071;28;20030;-86
2023/04/09 01:46:51;;;;;;;18.05;12.30;;;10.40;99.90;;;;;;5001229;28;20037;-86
2023/04/09 01:49:19;;;;;;;15.95;11.65;;;10.40;99.90;;;;;;5001404;28;20137;-85
2023/04/09 01:51:46;;;;;;;16.88;12.13;;;10.40;99.90;;;;;;4998108;28;20538;-86
2023/04/09 01:54:12;;;;;;;16.92;12.10;;;10.40;99.90;;;;;;5017069;28;20033;-86
2023/04/09 01:56:46;;;;;;;19.33;13.27;;;10.40;99.90;;;;;;4997079;28;20041;-86
2023/04/09 01:59:12;;;;;;;17.90;12.73;;;10.40;99.90;;;;;;4999962;28;20030;-87
2023/04/09 02:01:42;;;;;;;18.02;12.60;;;10.40;99.90;;;;;;5014256;28;20037;-87
2023/04/09 02:04:15;;;;;;;17.55;12.27;;;10.40;99.90;;;;;;4998990;28;20042;-87
2023/04/09 02:07:04;;;;;;;17.77;12.55;;;10.40;99.90;;;;;;4999570;28;20045;-87
2023/04/09 02:09:34;;;;;;;18.20;12.57;;;10.40;99.90;;;;;;5011222;28;20038;-86
2023/04/09 02:12:04;;;;;;;16.75;11.88;;;10.40;99.90;;;;;;4999369;28;20113;-87
2023/04/09 02:14:36;;;;;;;17.55;11.57;;;10.40;99.90;;;;;;4997366;28;20034;-85
2023/04/09 02:17:02;;;;;;;16.20;11.52;;;10.40;99.90;;;;;;5002246;28;20528;-86
2023/04/09 02:19:43;;;;;;;14.82;10.88;;;10.40;99.90;;;;;;4996782;28;20034;-86
2023/04/09 02:22:10;;;;;;;14.50;10.55;;;10.40;99.90;;;;;;4996928;28;20040;-86
2023/04/09 02:24:36;;;;;;;15.52;10.57;;;10.30;99.90;;;;;;4999569;28;20059;-86
2023/04/09 02:27:03;;;;;;;14.25;10.23;;;10.40;99.90;;;;;;4998721;28;20030;-87
2023/04/09 02:29:33;;;;;;;17.38;10.82;;;10.40;99.90;;;;;;4997723;28;20022;-86
2023/04/09 02:32:07;;;;;;;14.75;10.60;;;10.40;99.90;;;;;;4998144;28;20033;-86
2023/04/09 02:34:34;;;;;;;16.00;11.73;;;10.30;99.90;;;;;;4997185;28;20414;-85
2023/04/09 02:36:59;;;;;;;16.35;11.30;;;10.30;99.90;;;;;;4998888;28;20042;-85
2023/04/09 02:39:26;;;;;;;15.68;10.57;;;10.30;99.90;;;;;;4998891;28;20117;-85
2023/04/09 02:41:52;;;;;;;15.70;11.20;;;10.30;99.90;;;;;;5003782;28;20037;-87
2023/04/09 02:44:27;;;;;;;15.80;11.25;;;10.30;99.90;;;;;;4996198;28;20120;-86
2023/04/09 02:46:53;;;;;;;16.38;10.77;;;10.30;99.90;;;;;;4999890;28;20026;-87
2023/04/09 02:49:19;;;;;;;15.38;10.50;;;10.30;99.90;;;;;;5000143;28;20428;-86
2023/04/09 02:51:45;;;;;;;16.05;11.48;;;10.30;99.90;;;;;;5003424;28;20553;-87
2023/04/09 02:54:10;;;;;;;16.48;11.38;;;10.30;99.90;;;;;;5000648;28;20124;-86
2023/04/09 02:56:37;;;;;;;16.33;11.52;;;10.30;99.90;;;;;;4999210;28;20025;-86
2023/04/09 02:59:06;;;;;;;15.73;11.00;;;10.20;99.90;;;;;;4997501;28;20026;-86
2023/04/09 03:01:37;;;;;;;18.33;12.63;;;10.20;99.90;;;;;;4989382;28;20045;-88
2023/04/09 03:04:04;;;;;;;17.17;12.02;;;10.20;99.90;;;;;;4984168;28;20038;-87
2023/04/09 03:06:30;;;;;;;18.52;12.95;;;10.20;99.90;;;;;;4987666;28;20033;-86
2023/04/09 03:08:55;;;;;;;18.20;12.82;;;10.20;99.90;;;;;;4981709;28;20026;-86
2023/04/09 03:11:23;;;;;;;19.25;13.30;;;10.20;99.90;;;;;;4982380;28;20457;-86
2023/04/09 03:13:49;;;;;;;19.17;13.05;;;10.20;99.90;;;;;;4984660;28;20474;-85
2023/04/09 03:16:15;;;;;;;17.13;11.30;;;10.20;99.90;;;;;;4998201;28;20035;-86
2023/04/09 03:18:41;;;;;;;14.65;10.90;;;10.20;99.90;;;;;;4996621;28;20049;-86
2023/04/09 03:21:07;;;;;;;16.67;11.98;;;10.20;99.90;;;;;;4993307;28;20034;-85
2023/04/09 03:23:34;;;;;;;16.10;11.23;;;10.20;99.90;;;;;;4979881;28;20054;-86
2023/04/09 03:26:04;;;;;;;19.45;13.38;;;10.20;99.90;;;;;;4995467;28;21012;-86
2023/04/09 03:28:30;;;;;;;17.40;12.65;;;10.20;99.90;;;;;;4982029;28;20645;-86
2023/04/09 03:30:57;;;;;;;17.50;11.98;;;10.20;99.90;;;;;;4980638;28;20035;-86
2023/04/09 03:33:24;;;;;;;17.05;11.50;;;10.20;99.90;;;;;;4981571;28;20125;-87
2023/04/09 03:35:56;;;;;;;16.40;11.73;;;10.10;99.90;;;;;;4984016;28;20313;-87
2023/04/09 03:38:22;;;;;;;18.17;12.45;;;10.10;99.90;;;;;;4977400;28;20077;-87
2023/04/09 03:40:51;;;;;;;19.30;12.38;;;10.10;99.90;;;;;;4978405;28;20030;-87
2023/04/09 03:43:17;;;;;;;17.63;12.25;;;10.10;99.90;;;;;;4995910;28;20474;-86
2023/04/09 03:45:43;;;;;;;19.52;13.63;;;10.10;99.90;;;;;;4980834;28;20037;-86
2023/04/09 03:48:09;;;;;;;20.27;13.95;;;10.10;99.90;;;;;;4990212;28;20027;-86
2023/04/09 03:50:40;;;;;;;18.13;13.00;;;10.20;99.90;;;;;;5003164;28;20795;-86
2023/04/09 03:53:07;;;;;;;21.80;13.93;;;10.10;99.90;;;;;;5002158;28;20030;-86
2023/04/09 03:55:33;;;;;;;20.08;14.18;;;10.00;99.90;;;;;;4996876;28;20034;-87
2023/04/09 03:58:00;;;;;;;21.08;14.52;;;10.10;99.90;;;;;;4997969;28;20034;-87
2023/04/09 04:00:28;;;;;;;18.60;13.23;;;10.10;99.90;;;;;;4996337;28;20112;-86
2023/04/09 04:02:54;;;;;;;17.90;11.93;;;10.00;99.90;;;;;;5014031;28;20048;-87
2023/04/09 04:05:24;;;;;;;17.35;11.63;;;10.00;99.90;;;;;;5009311;28;20025;-88
2023/04/09 04:07:50;;;;;;;17.00;12.13;;;10.00;99.90;;;;;;5016490;28;20026;-87
2023/04/09 04:10:17;;;;;;;15.88;11.38;;;9.90;99.90;;;;;;5009555;28;20030;-87
2023/04/09 04:12:43;;;;;;;18.35;13.20;;;10.00;99.90;;;;;;4999888;28;20135;-87
2023/04/09 04:15:09;;;;;;;18.20;13.27;;;9.90;99.90;;;;;;5016726;28;20116;-87
2023/04/09 04:17:35;;;;;;;17.63;12.48;;;9.90;99.90;;;;;;5008182;28;20416;-87
2023/04/09 04:20:01;;;;;;;15.77;11.43;;;9.90;99.90;;;;;;5016048;28;20457;-87
2023/04/09 04:22:26;;;;;;;15.57;11.13;;;9.90;99.90;;;;;;5005976;28;20030;-87
2023/04/09 04:24:52;;;;;;;16.52;11.93;;;9.80;99.90;;;;;;5012261;28;20033;-87
2023/04/09 04:27:19;;;;;;;18.90;12.80;;;9.80;99.90;;;;;;5016093;28;20061;-87
2023/04/09 04:29:45;;;;;;;16.77;10.93;;;9.80;99.90;;;;;;5013674;28;22103;-87
2023/04/09 04:32:11;;;;;;;17.60;11.90;;;9.80;99.90;;;;;;4999202;28;20040;-87
2023/04/09 04:34:37;;;;;;;16.42;12.15;;;9.70;99.90;;;;;;5020154;28;20445;-88
2023/04/09 04:37:03;;;;;;;19.13;12.60;;;9.80;99.90;;;;;;5018338;28;20414;-88
2023/04/09 04:39:30;;;;;;;17.02;12.32;;;9.80;99.90;;;;;;5018609;28;20113;-88
2023/04/09 04:41:56;;;;;;;18.52;12.75;;;9.70;99.90;;;;;;5004438;28;20099;-87
2023/04/09 04:44:22;;;;;;;16.13;11.70;;;9.70;99.90;;;;;;5018501;28;20033;-86
2023/04/09 04:46:48;;;;;;;16.55;11.68;;;9.70;99.90;;;;;;5012767;28;20536;-87
2023/04/09 04:49:15;;;;;;;21.27;13.85;;;9.60;99.90;;;;;;5019974;28;20469;-87
2023/04/09 04:51:42;;;;;;;18.42;12.68;;;9.60;99.90;;;;;;5020327;28;20026;-87
2023/04/09 04:54:08;;;;;;;17.65;12.50;;;9.50;99.90;;;;;;5021502;28;20029;-87
2023/04/09 04:56:34;;;;;;;20.85;13.85;;;9.50;99.90;;;;;;5010336;28;20112;-87
2023/04/09 04:59:00;;;;;;;17.90;12.23;;;9.40;99.90;;;;;;5019281;28;20440;-86
2023/04/09 05:01:25;;;;;;;16.80;12.07;;;9.40;99.90;;;;;;5021250;28;20160;-86
2023/04/09 05:03:52;;;;;;;19.20;13.25;;;9.30;99.90;;;;;;5012330;28;20025;-86
2023/04/09 05:06:18;;;;;;;18.73;13.10;;;9.20;99.90;;;;;;5008646;28;20128;-85
2023/04/09 05:08:44;;;;;;;18.70;13.32;;;9.10;99.90;;;;;;5014890;28;20038;-86
2023/04/09 05:11:15;;;;;;;19.48;13.85;;;8.90;99.90;;;;;;5022131;28;20052;-87
2023/04/09 05:13:41;;;;;;;17.38;12.30;;;8.90;99.90;;;;;;5019612;28;20030;-86
2023/04/09 05:16:07;;;;;;;17.55;12.45;;;8.80;99.90;;;;;;5018236;28;20035;-86
2023/04/09 05:18:34;;;;;;;18.98;11.63;;;8.70;99.90;;;;;;5000950;28;20042;-86
2023/04/09 05:20:59;;;;;;;18.27;12.27;;;8.60;99.90;;;;;;5017553;28;20676;-87
2023/04/09 05:23:26;;;;;;;18.60;12.20;;;8.50;99.90;;;;;;5018954;28;20125;-86
2023/04/09 05:25:53;;;;;;;17.08;11.50;;;8.50;99.90;;;;;;5019744;28;20040;-86
2023/04/09 05:28:19;;;;;;;18.30;12.95;;;8.40;99.90;;;;;;5018550;28;20029;-86
2023/04/09 05:30:49;;;;;;;18.15;11.73;;;8.40;99.90;;;;;;5009584;28;20030;-87
2023/04/09 05:33:15;;;;;;;15.50;10.98;;;8.30;99.90;;;;;;5016935;28;20029;-87
2023/04/09 05:35:41;;;;;;;15.88;11.20;;;8.20;99.90;;;;;;5012143;28;20037;-86
2023/04/09 05:38:09;;;;;;;16.27;11.43;;;8.20;99.90;;;;;;5020821;28;20022;-85
2023/04/09 05:40:35;;;;;;;16.38;10.90;;;8.20;99.90;;;;;;5010520;28;20032;-87
2023/04/09 05:43:01;;;;;;;15.18;11.05;;;8.20;99.90;;;;;;5020226;28;20030;-86
2023/04/09 05:45:27;;;;;;;17.38;11.80;;;8.20;99.90;;;;;;5015045;28;20547;-86
2023/04/09 05:47:53;;;;;;;18.25;12.00;;;8.10;99.90;;;;;;5017205;28;20389;-86
2023/04/09 05:50:20;;;;;;;16.92;11.65;;;8.10;99.90;;;;;;5019194;28;20022;-87
2023/04/09 05:52:46;;;;;;;19.02;12.65;;;8.10;99.90;;;;;;5010054;28;20033;-86
2023/04/09 05:55:14;;;;;;;17.55;12.57;;;8.10;99.90;;;;;;5010277;28;20491;-86
2023/04/09 05:57:41;;;;;;;18.88;11.55;;;8.10;99.90;;;;;;5019312;28;20138;-86
2023/04/09 06:00:08;;;;;;;17.98;11.88;;;8.10;99.90;;;;;;5018521;28;20087;-86
2023/04/09 06:02:37;;;;;;;18.48;12.68;;;8.10;99.90;;;;;;5016311;28;20485;-85
2023/04/09 06:05:05;;;;;;;17.77;12.20;;;8.10;99.90;;;;;;5015883;28;20051;-86
2023/04/09 06:07:32;;;;;;;16.73;11.68;;;8.00;99.90;;;;;;5016642;28;22526;-86
2023/04/09 06:09:58;;;;;;;17.90;12.13;;;8.10;99.90;;;;;;5003221;28;20026;-86
2023/04/09 06:12:25;;;;;;;18.15;12.40;;;8.10;99.90;;;;;;5001330;28;20022;-85
2023/04/09 06:14:50;;;;;;;19.75;13.00;;;8.20;99.90;;;;;;5002601;28;20037;-86
2023/04/09 06:17:18;;;;;;;21.85;13.52;;;8.20;99.90;;;;;;5021670;28;20424;-87
2023/04/09 06:19:47;;;;;;;23.08;15.02;;;8.20;99.90;;;;;;5019570;28;20112;-87
2023/04/09 06:22:13;;;;;;;20.60;13.25;;;8.20;99.90;;;;;;5015995;28;20029;-85
2023/04/09 06:24:39;;;;;;;21.30;14.02;;;8.20;99.90;;;;;;5015933;28;20026;-86
2023/04/09 06:27:08;;;;;;;19.02;13.40;;;8.20;99.90;;;;;;5016065;28;20029;-85
2023/04/09 06:29:34;;;;;;;22.85;14.93;;;8.20;99.90;;;;;;5014194;28;20037;-87
2023/04/09 06:32:01;;;;;;;21.55;13.73;;;8.30;99.90;;;;;;5018048;28;20044;-87
2023/04/09 06:34:27;;;;;;;22.40;14.50;;;8.30;99.90;;;;;;5016198;28;20025;-85
2023/04/09 06:36:54;;;;;;;21.42;13.77;;;8.30;99.90;;;;;;5014697;28;20026;-86
2023/04/09 06:39:21;;;;;;;21.38;14.48;;;8.40;99.90;;;;;;5020080;28;20473;-88
2023/04/09 06:41:47;;;;;;;21.73;14.10;;;8.40;99.90;;;;;;5004888;28;20143;-86
2023/04/09 06:44:13;;;;;;;19.65;13.93;;;8.40;99.90;;;;;;5001616;28;20022;-87
2023/04/09 06:46:39;;;;;;;23.08;15.25;;;8.40;99.90;;;;;;5019717;28;20025;-87
2023/04/09 06:49:05;;;;;;;20.23;13.60;;;8.40;99.90;;;;;;5020384;28;20109;-87
2023/04/09 06:51:33;;;;;;;20.08;13.55;;;8.50;99.90;;;;;;5003680;28;20163;-86
2023/04/09 06:53:59;;;;;;;20.25;14.23;;;8.50;99.90;;;;;;5001025;28;20029;-87
2023/04/09 06:56:25;;;;;;;23.90;14.48;;;8.50;99.90;;;;;;5008360;28;20477;-86
2023/04/09 06:59:00;;;;;;;20.27;14.10;;;8.50;99.90;;;;;;5019327;28;20899;-87
2023/04/09 07:01:26;;;;;;;21.95;14.65;;;8.60;99.90;;;;;;5014838;28;20597;-86
2023/04/09 07:03:55;;;;;;;22.20;14.50;;;8.60;99.90;;;;;;5016461;28;20056;-87
2023/04/09 07:06:25;;;;;;;22.95;15.80;;;8.60;99.90;;;;;;4995998;28;20493;-87
2023/04/09 07:08:51;;;;;;;22.48;15.30;;;8.70;99.90;;;;;;4999380;28;20030;-87
2023/04/09 07:11:18;;;;;;;19.80;13.70;;;8.70;99.90;;;;;;4997500;28;20106;-88
2023/04/09 07:13:45;;;;;;;19.60;13.40;;;8.70;99.90;;;;;;4997253;28;20025;-86
2023/04/09 07:16:10;;;;;;;22.73;14.65;;;8.80;99.90;;;;;;4998117;28;20056;-87
2023/04/09 07:18:36;;;;;;;22.70;15.30;;;8.80;99.90;;;;;;4997255;28;20425;-87
2023/04/09 07:21:08;;;;;;;23.10;14.98;;;8.90;99.90;;;;;;5001855;28;20079;-86
2023/04/09 07:23:37;;;;;;;21.35;14.10;;;8.90;99.90;;;;;;4996007;28;20032;-86
2023/04/09 07:26:04;;;;;;;21.02;13.88;;;9.00;99.90;;;;;;4999348;28;20649;-86
2023/04/09 07:28:30;;;;;;;19.33;13.15;;;9.00;99.90;;;;;;5001775;28;20024;-86
2023/04/09 07:31:00;;;;;;;24.38;16.27;;;9.00;99.90;;;;;;4997625;28;20057;-85
2023/04/09 07:33:27;;;;;;;26.45;18.05;;;9.10;99.90;;;;;;4979502;28;20036;-86
2023/04/09 07:35:55;;;;;;;26.42;17.50;;;9.20;99.90;;;;;;4997783;28;20128;-85
2023/04/09 07:38:21;;;;;;;24.02;16.10;;;9.30;99.90;;;;;;5001603;28;20041;-85
2023/04/09 07:40:47;;;;;;;30.23;20.55;;;9.30;99.90;;;;;;4998196;28;20105;-86
2023/04/09 07:43:16;;;;;;;29.85;20.27;;;9.40;99.90;;;;;;5000525;28;20561;-86
2023/04/09 07:45:54;;;;;;;27.42;18.65;;;9.40;99.90;;;;;;4998344;28;20133;-86
2023/04/09 07:48:24;;;;;;;25.50;16.77;;;9.50;99.90;;;;;;4998697;28;20083;-86
2023/04/09 07:50:56;;;;;;;30.60;20.42;;;9.50;99.90;;;;;;5000552;28;20410;-86
2023/04/09 07:53:22;;;;;;;27.38;18.80;;;9.60;99.90;;;;;;4998964;28;20515;-86
2023/04/09 07:55:51;;;;;;;27.23;18.75;;;9.60;99.90;;;;;;4995573;28;20064;-86
2023/04/09 07:58:17;;;;;;;27.38;18.83;;;9.70;99.90;;;;;;4997202;28;20030;-87
2023/04/09 08:00:44;;;;;;;26.17;17.98;;;9.80;99.90;;;;;;4999285;28;20466;-87
2023/04/09 08:03:14;;;;;;;22.73;15.68;;;9.80;99.90;;;;;;5000604;28;20032;-87
2023/04/09 08:05:40;;;;;;;22.98;16.02;;;9.80;99.90;;;;;;5013721;28;20061;-86
2023/04/09 08:08:10;;;;;;;21.35;14.77;;;9.90;99.90;;;;;;5001977;28;22378;-86
2023/04/09 08:10:37;;;;;;;23.90;16.50;;;10.00;99.90;;;;;;5015132;28;20030;-85
2023/04/09 08:13:06;;;;;;;22.60;15.80;;;10.00;99.90;;;;;;4996420;28;20642;-86
2023/04/09 08:15:52;;;;;;;21.00;14.68;;;10.10;99.90;;;;;;5016594;28;20060;-86
2023/04/09 08:18:18;;;;;;;20.27;13.90;;;10.20;99.90;;;;;;5006071;28;20449;-86
2023/04/09 08:20:44;;;;;;;22.58;15.75;;;10.30;99.90;;;;;;5002280;28;20477;-86
2023/04/09 08:23:12;;;;;;;19.55;14.55;;;10.30;99.90;;;;;;5020691;28;20107;-87
2023/04/09 08:25:38;;;;;;;20.88;14.38;;;10.40;99.90;;;;;;5021442;28;20047;-87
2023/04/09 08:28:04;;;;;;;19.77;14.13;;;10.40;99.90;;;;;;5017185;28;20432;-86
2023/04/09 08:30:35;;;;;;;23.48;16.27;;;10.50;99.90;;;;;;5004156;28;20033;-86
2023/04/09 08:33:02;;;;;;;21.15;15.88;;;10.60;99.90;;;;;;5017761;28;20029;-86
2023/04/09 08:35:30;;;;;;;21.35;14.60;;;10.60;99.90;;;;;;5019477;28;20375;-84
2023/04/09 08:37:56;;;;;;;20.73;14.38;;;10.70;99.90;;;;;;5018947;28;20864;-86
2023/04/09 08:40:26;;;;;;;21.30;14.75;;;10.80;99.90;;;;;;5007648;28;20033;-88
2023/04/09 08:42:56;;;;;;;25.70;18.92;;;10.90;99.90;;;;;;5019129;28;20025;-85
2023/04/09 08:45:23;;;;;;;24.40;17.58;;;11.00;99.90;;;;;;5016726;28;20030;-86
2023/04/09 08:47:51;;;;;;;26.25;17.17;;;11.00;99.90;;;;;;5019646;28;20029;-85
2023/04/09 08:50:18;;;;;;;23.70;16.52;;;11.00;99.90;;;;;;5016195;28;20031;-86
2023/04/09 08:52:50;;;;;;;21.50;16.23;;;11.10;99.90;;;;;;5009845;28;20038;-87
2023/04/09 08:55:17;;;;;;;25.02;17.48;;;11.20;99.90;;;;;;5020426;28;20436;-86
2023/04/09 08:57:43;;;;;;;24.55;17.75;;;11.30;99.90;;;;;;5004179;28;20072;-86
2023/04/09 09:00:12;;;;;;;25.58;17.30;;;11.30;99.90;;;;;;5000180;28;20037;-87
2023/04/09 09:03:00;;;;;;;24.17;16.77;;;11.40;99.90;;;;;;4998679;28;20133;-87
2023/04/09 09:05:45;;;;;;;20.15;14.45;;;11.50;99.90;;;;;;5004727;28;20033;-86
2023/04/09 09:08:22;;;;;;;18.17;12.80;;;11.60;99.90;;;;;;5017728;28;20131;-87
2023/04/09 09:10:49;;;;;;;21.25;14.57;;;11.70;99.90;;;;;;5018762;28;20056;-86
2023/04/09 09:13:27;;;;;;;18.95;13.95;;;11.80;99.90;;;;;;5002394;28;20489;-86
2023/04/09 09:16:10;;;;;;;18.88;13.30;;;12.00;99.90;;;;;;5001689;28;20036;-87
2023/04/09 09:18:42;;;;;;;17.60;11.93;;;12.10;99.90;;;;;;5000893;28;20140;-86
2023/04/09 09:21:18;;;;;;;16.15;11.20;;;12.10;99.90;;;;;;5019945;28;20123;-84
2023/04/09 09:23:49;;;;;;;21.90;15.40;;;12.30;99.90;;;;;;5003178;28;20099;-85
2023/04/09 09:26:21;;;;;;;23.02;16.73;;;12.30;99.90;;;;;;5018929;28;20053;-85
2023/04/09 09:28:49;;;;;;;20.08;14.75;;;12.40;99.90;;;;;;5017540;28;20084;-84
2023/04/09 09:31:19;;;;;;;20.92;15.23;;;12.40;99.90;;;;;;5017400;28;20499;-85
2023/04/09 09:33:47;;;;;;;20.35;14.88;;;12.50;99.90;;;;;;5004581;28;20464;-86
2023/04/09 09:36:17;;;;;;;19.00;13.18;;;12.70;99.90;;;;;;5006155;28;20044;-87
2023/04/09 09:39:08;;;;;;;19.75;14.38;;;12.80;99.90;;;;;;5010245;28;20040;-86
2023/04/09 09:41:37;;;;;;;15.43;11.65;;;13.00;99.90;;;;;;5020579;28;20461;-86
2023/04/09 09:44:05;;;;;;;16.00;12.23;;;13.90;99.90;;;;;;5020366;28;20136;-87
2023/04/09 09:46:43;;;;;;;16.50;12.70;;;15.30;99.90;;;;;;5005178;28;20137;-87
2023/04/09 09:49:11;;;;;;;15.70;11.23;;;16.80;99.90;;;;;;5019345;28;20083;-87
2023/04/09 09:51:40;;;;;;;13.95;10.57;;;17.90;99.90;;;;;;5017346;28;20026;-88
2023/04/09 09:54:11;;;;;;;15.80;12.38;;;18.70;99.90;;;;;;4987659;28;20034;-86
2023/04/09 09:56:42;;;;;;;18.17;13.80;;;19.30;99.90;;;;;;5010690;28;20033;-87
2023/04/09 09:59:22;;;;;;;14.57;11.63;;;19.90;99.90;;;;;;5002860;28;20037;-87
2023/04/09 10:01:56;;;;;;;14.98;11.82;;;20.20;99.90;;;;;;4998252;28;20137;-86
2023/04/09 10:04:25;;;;;;;14.32;10.85;;;20.70;99.90;;;;;;4997072;28;20030;-86
2023/04/09 10:06:51;;;;;;;16.02;12.73;;;21.20;99.90;;;;;;5000581;28;20030;-86
2023/04/09 10:09:20;;;;;;;13.20;10.15;;;21.40;99.90;;;;;;5012746;28;20478;-87
2023/04/09 10:11:48;;;;;;;13.55;9.80;;;21.60;99.90;;;;;;5015626;28;20149;-87
2023/04/09 10:14:18;;;;;;;14.23;10.18;;;21.90;99.90;;;;;;4999705;28;20030;-86
2023/04/09 10:16:45;;;;;;;11.93;9.45;;;22.20;99.90;;;;;;4999372;28;20777;-87
2023/04/09 10:19:13;;;;;;;11.85;9.23;;;22.40;99.90;;;;;;5004354;28;20495;-87
2023/04/09 10:21:58;;;;;;;12.98;9.02;;;22.70;99.90;;;;;;4996502;28;20049;-87
2023/04/09 10:24:25;;;;;;;13.18;9.82;;;22.80;99.90;;;;;;5013368;28;20030;-87
2023/04/09 10:27:08;;;;;;;14.10;11.45;;;22.80;99.90;;;;;;4996470;28;20061;-86
2023/04/09 10:29:41;;;;;;;13.57;10.80;;;22.80;99.90;;;;;;4997164;28;20379;-86
2023/04/09 10:32:07;;;;;;;11.30;8.77;;;22.80;99.90;;;;;;5001281;28;20042;-86
2023/04/09 10:34:42;;;;;;;10.75;8.65;;;23.10;99.90;;;;;;5005087;28;20418;-87
2023/04/09 10:37:18;;;;;;;10.25;7.80;;;23.50;99.90;;;;;;4998593;28;20060;-89
2023/04/09 10:39:49;;;;;;;9.63;7.32;;;23.90;99.90;;;;;;4996151;28;20525;-88
2023/04/09 10:42:31;;;;;;;9.77;7.93;;;24.10;99.90;;;;;;4997147;28;20041;-89
2023/04/09 10:45:13;;;;;;;11.57;9.45;;;24.40;99.90;;;;;;4997781;28;20043;-89
2023/04/09 10:47:45;;;;;;;12.77;11.05;;;24.30;99.10;;;;;;5001607;28;20032;-89
2023/04/09 10:50:15;;;;;;;11.50;9.10;;;23.80;97.80;;;;;;4998569;28;20034;-85
2023/04/09 10:52:43;;;;;;;10.57;8.40;;;23.50;98.00;;;;;;5014920;28;20308;-88
2023/04/09 10:55:29;;;;;;;11.05;9.07;;;23.70;98.10;;;;;;4999896;28;20120;-89
2023/04/09 10:57:58;;;;;;;11.23;8.98;;;23.80;97.60;;;;;;5004297;28;20038;-88
2023/04/09 11:00:27;;;;;;;11.82;9.98;;;24.00;97.50;;;;;;5002495;28;20030;-88
2023/04/09 11:03:30;;;;;;;9.75;7.93;;;23.70;97.00;;;;;;4986763;28;20065;-88
2023/04/09 11:05:59;;;;;;;;;;;22.90;97.80;;;;;;4982832;28;20041;-86
2023/04/09 11:08:34;;;;;;;8.40;6.57;;;23.10;98.50;;;;;;4996316;28;19953;-88
2023/04/09 11:11:04;;;;;;;8.48;6.25;;;23.50;96.90;;;;;;4996816;28;20073;-86
2023/04/09 11:13:31;;;;;;;7.43;5.28;;;23.60;96.00;;;;;;4995076;28;20088;-84
2023/04/09 11:16:02;;;;;;;6.85;4.75;;;23.60;96.00;;;;;;4982787;28;20042;-85
2023/04/09 11:18:30;;;;;;;5.30;3.92;;;24.00;96.00;;;;;;4991870;28;20042;-85
2023/04/09 11:21:02;;;;;;;5.45;3.65;;;24.40;95.10;;;;;;4978627;28;20038;-86
2023/04/09 11:23:30;;;;;;;5.57;3.83;;;24.60;94.60;;;;;;4978215;28;20526;-86
2023/04/09 11:25:57;;;;;;;6.00;3.90;;;24.50;93.80;;;;;;4995092;28;20666;-87
2023/04/09 11:28:24;;;;;;;4.95;3.85;;;24.60;93.70;;;;;;4995100;28;20037;-85
2023/04/09 11:30:52;;;;;;;6.38;4.55;;;24.90;93.60;;;;;;4997092;28;20479;-85
2023/04/09 11:33:32;;;;;;;6.53;4.82;;;25.20;93.50;;;;;;4978389;28;20030;-87
2023/04/09 11:35:58;;;;;;;5.47;4.28;;;25.40;93.70;;;;;;4995403;28;20058;-85
2023/04/09 11:38:24;;;;;;;4.80;3.53;;;25.40;94.00;;;;;;4978342;28;20022;-88
2023/04/09 11:40:57;;;;;;;5.22;3.97;;;25.40;94.10;;;;;;4978383;28;20026;-85
2023/04/09 11:43:24;;;;;;;5.20;3.75;;;25.60;93.60;;;;;;4982340;28;20026;-86
2023/04/09 11:45:52;;;;;;;5.60;4.20;;;25.40;92.80;;;;;;4981046;28;20035;-85
2023/04/09 11:48:20;;;;;;;5.03;4.07;;;25.20;91.60;;;;;;4979785;28;20069;-86
2023/04/09 11:50:47;;;;;;;4.00;3.35;;;25.10;91.90;;;;;;4993940;28;20487;-85
2023/04/09 11:53:31;;;;;;;4.72;3.22;;;25.20;92.00;;;;;;4994934;28;20069;-85
2023/04/09 11:55:57;;;;;;;5.03;3.80;;;25.40;91.90;;;;;;4979509;28;20054;-85
2023/04/09 11:58:26;;;;;;;4.35;3.35;;;25.50;91.70;;;;;;4980406;28;20027;-85
2023/04/09 12:00:57;;;;;;;5.22;3.72;;;25.60;92.10;;;;;;4978171;28;20037;-85
2023/04/09 12:03:36;;;;;;;4.90;3.75;;;25.70;92.00;;;;;;5010210;28;20121;-84
2023/04/09 12:06:02;;;;;;;6.10;4.80;;;25.90;91.90;;;;;;4997267;28;20125;-87
2023/04/09 12:08:30;;;;;;;5.57;4.32;;;26.00;91.20;;;;;;4998958;28;20026;-86
2023/04/09 12:11:09;;;;;;;5.78;4.32;;;26.00;91.40;;;;;;5003887;28;20569;-90
2023/04/09 12:13:35;;;;;;;5.35;4.45;;;26.10;91.60;;;;;;4995691;28;20109;-86
2023/04/09 12:16:04;;;;;;;6.13;4.72;;;26.10;91.40;;;;;;4997469;28;20121;-86
2023/04/09 12:18:35;;;;;;;7.95;5.63;;;26.10;91.40;;;;;;4979144;28;20068;-84
2023/04/09 12:21:01;;;;;;;6.90;5.40;;;25.90;91.10;;;;;;4994458;28;20054;-85
2023/04/09 12:23:30;;;;;;;6.00;4.47;;;26.10;91.00;;;;;;4976899;28;20041;-85
2023/04/09 12:26:00;;;;;;;5.70;4.50;;;26.30;91.20;;;;;;4994156;28;20038;-85
2023/04/09 12:28:26;;;;;;;6.40;4.82;;;26.50;90.90;;;;;;4999420;28;20034;-86
2023/04/09 12:30:53;;;;;;;5.65;4.63;;;26.70;91.20;;;;;;5000284;28;20119;-85
2023/04/09 12:33:20;;;;;;;6.18;4.85;;;26.90;91.10;;;;;;4999109;28;20026;-85
2023/04/09 12:35:46;;;;;;;7.68;5.55;;;26.90;90.90;;;;;;4993616;28;20110;-86
2023/04/09 12:38:13;;;;;;;7.18;5.20;;;26.70;90.50;;;;;;4999372;28;20126;-87
2023/04/09 12:40:39;;;;;;;9.63;7.82;;;26.60;90.70;;;;;;4994597;28;20021;-86
2023/04/09 12:43:05;;;;;;;11.07;8.60;;;26.60;90.30;;;;;;4993620;28;20060;-86